Terminal Aerodrome Forecast
Issued by NWS Wakefield, VA

Home | Current Version | Previous Version | Text Only | Print | Product List | Glossary On
Versions: 1 2 3 4 5 6 7 8 9 10 11 12 13 14 15
000
FTUS41 KAKQ 230900 AAA
TAFRIC
TAF AMD
KRIC 230944Z 2310/2406 35014G22KT P6SM SKC
     FM231400 32017G25KT P6SM SKC
     FM232300 34009KT P6SM SKC=

USA.gov is the U.S. government's official web portal to all federal, state and local government web resources and services.